sensor_id;sensor_type;location;lat;lon;timestamp;pressure;altitude;pressure_sealevel;temperature
71640;BMP280;60912;48.968;10.124;2023-09-12T00:01:34;96368.19;;;18.76
71640;BMP280;60912;48.968;10.124;2023-09-12T00:04:00;96354.97;;;18.77
71640;BMP280;60912;48.968;10.124;2023-09-12T00:23:22;96348.63;;;18.41
71640;BMP280;60912;48.968;10.124;2023-09-12T00:28:23;96340.88;;;18.28
71640;BMP280;60912;48.968;10.124;2023-09-12T00:30:49;96338.56;;;18.36
71640;BMP280;60912;48.968;10.124;2023-09-12T00:33:14;96346.69;;;18.32
71640;BMP280;60912;48.968;10.124;2023-09-12T00:35:40;96346.06;;;18.22
71640;BMP280;60912;48.968;10.124;2023-09-12T00:38:05;96335.75;;;18.13
71640;BMP280;60912;48.968;10.124;2023-09-12T00:40:34;96328.69;;;18.12
71640;BMP280;60912;48.968;10.124;2023-09-12T00:42:59;96324.47;;;18.11
71640;BMP280;60912;48.968;10.124;2023-09-12T00:45:25;96325.06;;;18.09
71640;BMP280;60912;48.968;10.124;2023-09-12T00:47:51;96320.06;;;18.08
71640;BMP280;60912;48.968;10.124;2023-09-12T00:50:17;96323.84;;;18.01
71640;BMP280;60912;48.968;10.124;2023-09-12T00:52:43;96323.81;;;17.89
71640;BMP280;60912;48.968;10.124;2023-09-12T00:55:09;96317.88;;;17.83
71640;BMP280;60912;48.968;10.124;2023-09-12T00:57:35;96316.75;;;17.77
71640;BMP280;60912;48.968;10.124;2023-09-12T01:00:05;96310.19;;;17.84
71640;BMP280;60912;48.968;10.124;2023-09-12T01:02:42;96303.94;;;17.95
71640;BMP280;60912;48.968;10.124;2023-09-12T01:05:09;96304.06;;;17.97
71640;BMP280;60912;48.968;10.124;2023-09-12T01:07:36;96298.63;;;17.99
71640;BMP280;60912;48.968;10.124;2023-09-12T01:10:02;96301.41;;;17.99
71640;BMP280;60912;48.968;10.124;2023-09-12T01:12:28;96309.13;;;17.89
71640;BMP280;60912;48.968;10.124;2023-09-12T01:14:54;96313.72;;;17.73
71640;BMP280;60912;48.968;10.124;2023-09-12T01:17:20;96308.00;;;17.71
71640;BMP280;60912;48.968;10.124;2023-09-12T01:19:45;96309.72;;;17.76
71640;BMP280;60912;48.968;10.124;2023-09-12T01:27:40;96315.75;;;17.72
71640;BMP280;60912;48.968;10.124;2023-09-12T01:30:08;96317.50;;;17.77
71640;BMP280;60912;48.968;10.124;2023-09-12T01:32:35;96315.91;;;17.86
71640;BMP280;60912;48.968;10.124;2023-09-12T01:35:01;96317.38;;;17.87
71640;BMP280;60912;48.968;10.124;2023-09-12T01:37:29;96322.44;;;17.79
71640;BMP280;60912;48.968;10.124;2023-09-12T01:39:55;96323.91;;;17.80
71640;BMP280;60912;48.968;10.124;2023-09-12T01:42:21;96325.38;;;17.81
71640;BMP280;60912;48.968;10.124;2023-09-12T01:44:49;96322.59;;;17.81
71640;BMP280;60912;48.968;10.124;2023-09-12T01:47:15;96324.53;;;17.90
71640;BMP280;60912;48.968;10.124;2023-09-12T01:49:45;96323.84;;;18.01
71640;BMP280;60912;48.968;10.124;2023-09-12T01:52:12;96325.56;;;18.06
71640;BMP280;60912;48.968;10.124;2023-09-12T01:54:41;96321.53;;;17.97
71640;BMP280;60912;48.968;10.124;2023-09-12T01:57:08;96328.66;;;17.89
71640;BMP280;60912;48.968;10.124;2023-09-12T01:59:34;96335.44;;;17.86
71640;BMP280;60912;48.968;10.124;2023-09-12T02:02:00;96329.00;;;17.83
71640;BMP280;60912;48.968;10.124;2023-09-12T02:04:25;96326.94;;;17.84
71640;BMP280;60912;48.968;10.124;2023-09-12T02:06:50;96335.78;;;17.80
71640;BMP280;60912;48.968;10.124;2023-09-12T02:09:15;96334.06;;;17.75
71640;BMP280;60912;48.968;10.124;2023-09-12T02:11:41;96331.44;;;17.77
71640;BMP280;60912;48.968;10.124;2023-09-12T02:14:06;96333.47;;;17.77
71640;BMP280;60912;48.968;10.124;2023-09-12T02:16:32;96333.22;;;17.73
71640;BMP280;60912;48.968;10.124;2023-09-12T02:18:57;96334.31;;;17.67
71640;BMP280;60912;48.968;10.124;2023-09-12T02:21:22;96330.25;;;17.59
71640;BMP280;60912;48.968;10.124;2023-09-12T02:23:48;96329.53;;;17.58
71640;BMP280;60912;48.968;10.124;2023-09-12T02:26:13;96329.66;;;17.60
71640;BMP280;60912;48.968;10.124;2023-09-12T02:28:39;96334.16;;;17.65
71640;BMP280;60912;48.968;10.124;2023-09-12T02:31:09;96325.22;;;17.67
71640;BMP280;60912;48.968;10.124;2023-09-12T02:33:35;96325.44;;;17.71
71640;BMP280;60912;48.968;10.124;2023-09-12T02:36:00;96325.69;;;17.63
71640;BMP280;60912;48.968;10.124;2023-09-12T02:38:25;96323.91;;;17.47
71640;BMP280;60912;48.968;10.124;2023-09-12T02:40:51;96320.94;;;17.33
71640;BMP280;60912;48.968;10.124;2023-09-12T02:43:16;96326.13;;;17.27
71640;BMP280;60912;48.968;10.124;2023-09-12T02:45:42;96320.41;;;17.25
71640;BMP280;60912;48.968;10.124;2023-09-12T02:48:08;96327.03;;;17.20
71640;BMP280;60912;48.968;10.124;2023-09-12T02:50:33;96323.19;;;17.25
71640;BMP280;60912;48.968;10.124;2023-09-12T02:52:58;96319.22;;;17.28
71640;BMP280;60912;48.968;10.124;2023-09-12T02:55:23;96317.03;;;17.27
71640;BMP280;60912;48.968;10.124;2023-09-12T02:57:49;96325.38;;;17.27
71640;BMP280;60912;48.968;10.124;2023-09-12T03:00:14;96322.13;;;17.30
71640;BMP280;60912;48.968;10.124;2023-09-12T03:02:40;96320.13;;;17.21
71640;BMP280;60912;48.968;10.124;2023-09-12T03:05:05;96319.75;;;17.15
71640;BMP280;60912;48.968;10.124;2023-09-12T03:07:31;96316.19;;;17.03
71640;BMP280;60912;48.968;10.124;2023-09-12T03:09:56;96316.25;;;16.93
71640;BMP280;60912;48.968;10.124;2023-09-12T03:12:21;96313.91;;;16.90
71640;BMP280;60912;48.968;10.124;2023-09-12T03:14:47;96308.22;;;16.88
71640;BMP280;60912;48.968;10.124;2023-09-12T03:17:12;96310.72;;;16.84
71640;BMP280;60912;48.968;10.124;2023-09-12T03:19:37;96304.47;;;16.95
71640;BMP280;60912;48.968;10.124;2023-09-12T03:22:03;96294.16;;;17.07
71640;BMP280;60912;48.968;10.124;2023-09-12T03:24:28;96295.56;;;17.17
71640;BMP280;60912;48.968;10.124;2023-09-12T03:26:54;96302.25;;;17.24
71640;BMP280;60912;48.968;10.124;2023-09-12T03:29:20;96297.63;;;17.17
71640;BMP280;60912;48.968;10.124;2023-09-12T03:31:45;96288.38;;;17.14
71640;BMP280;60912;48.968;10.124;2023-09-12T03:34:13;96287.38;;;17.10
71640;BMP280;60912;48.968;10.124;2023-09-12T03:36:39;96287.78;;;16.95
71640;BMP280;60912;48.968;10.124;2023-09-12T03:39:04;96286.59;;;16.98
71640;BMP280;60912;48.968;10.124;2023-09-12T03:41:34;96298.75;;;17.02
71640;BMP280;60912;48.968;10.124;2023-09-12T03:43:59;96293.25;;;17.14
71640;BMP280;60912;48.968;10.124;2023-09-12T03:46:25;96296.53;;;17.22
71640;BMP280;60912;48.968;10.124;2023-09-12T03:48:50;96295.94;;;17.24
71640;BMP280;60912;48.968;10.124;2023-09-12T03:51:15;96282.97;;;17.16
71640;BMP280;60912;48.968;10.124;2023-09-12T03:53:41;96283.28;;;17.11
71640;BMP280;60912;48.968;10.124;2023-09-12T03:56:07;96288.13;;;17.10
71640;BMP280;60912;48.968;10.124;2023-09-12T03:58:33;96283.44;;;17.13
71640;BMP280;60912;48.968;10.124;2023-09-12T04:00:58;96280.91;;;17.17
71640;BMP280;60912;48.968;10.124;2023-09-12T04:03:24;96289.66;;;17.23
71640;BMP280;60912;48.968;10.124;2023-09-12T04:05:50;96281.69;;;17.29
71640;BMP280;60912;48.968;10.124;2023-09-12T04:08:15;96284.72;;;17.33
71640;BMP280;60912;48.968;10.124;2023-09-12T04:10:42;96277.56;;;17.30
71640;BMP280;60912;48.968;10.124;2023-09-12T04:13:07;96279.97;;;17.24
71640;BMP280;60912;48.968;10.124;2023-09-12T04:15:32;96272.66;;;17.19
71640;BMP280;60912;48.968;10.124;2023-09-12T04:17:58;96275.06;;;17.13
71640;BMP280;60912;48.968;10.124;2023-09-12T04:20:24;96280.09;;;17.05
71640;BMP280;60912;48.968;10.124;2023-09-12T04:22:49;96276.00;;;17.06
71640;BMP280;60912;48.968;10.124;2023-09-12T04:25:14;96277.06;;;17.01
71640;BMP280;60912;48.968;10.124;2023-09-12T04:27:41;96285.88;;;16.97
71640;BMP280;60912;48.968;10.124;2023-09-12T04:30:07;96280.44;;;16.99
71640;BMP280;60912;48.968;10.124;2023-09-12T04:32:33;96279.84;;;17.01
71640;BMP280;60912;48.968;10.124;2023-09-12T04:34:58;96284.56;;;16.98
71640;BMP280;60912;48.968;10.124;2023-09-12T04:37:23;96286.59;;;16.98
71640;BMP280;60912;48.968;10.124;2023-09-12T04:39:49;96284.09;;;17.02
71640;BMP280;60912;48.968;10.124;2023-09-12T04:42:14;96287.13;;;17.06
71640;BMP280;60912;48.968;10.124;2023-09-12T04:44:40;96287.38;;;17.10
71640;BMP280;60912;48.968;10.124;2023-09-12T04:47:05;96279.44;;;17.16
71640;BMP280;60912;48.968;10.124;2023-09-12T04:49:31;96282.38;;;17.18
71640;BMP280;60912;48.968;10.124;2023-09-12T04:51:56;96283.69;;;17.17
71640;BMP280;60912;48.968;10.124;2023-09-12T04:54:22;96285.47;;;17.12
71640;BMP280;60912;48.968;10.124;2023-09-12T04:56:47;96286.06;;;17.11
71640;BMP280;60912;48.968;10.124;2023-09-12T04:59:13;96295.88;;;17.12
71640;BMP280;60912;48.968;10.124;2023-09-12T05:01:38;96292.03;;;17.17
71640;BMP280;60912;48.968;10.124;2023-09-12T05:04:03;96289.84;;;17.15
71640;BMP280;60912;48.968;10.124;2023-09-12T05:06:29;96291.31;;;17.16
71640;BMP280;60912;48.968;10.124;2023-09-12T05:08:54;96296.38;;;17.20
71640;BMP280;60912;48.968;10.124;2023-09-12T05:11:22;96294.94;;;17.19
71640;BMP280;60912;48.968;10.124;2023-09-12T05:13:48;96291.63;;;17.32
71640;BMP280;60912;48.968;10.124;2023-09-12T05:16:13;96291.41;;;17.73
71640;BMP280;60912;48.968;10.124;2023-09-12T05:18:38;96301.28;;;17.97
71640;BMP280;60912;48.968;10.124;2023-09-12T05:21:04;96300.72;;;18.33
71640;BMP280;60912;48.968;10.124;2023-09-12T05:23:29;96295.13;;;18.45
71640;BMP280;60912;48.968;10.124;2023-09-12T05:25:54;96296.91;;;18.87
71640;BMP280;60912;48.968;10.124;2023-09-12T05:28:20;96293.94;;;19.70
71640;BMP280;60912;48.968;10.124;2023-09-12T05:30:45;96288.44;;;20.52
71640;BMP280;60912;48.968;10.124;2023-09-12T05:33:11;96289.41;;;21.42
71640;BMP280;60912;48.968;10.124;2023-09-12T05:35:36;96291.03;;;22.08
71640;BMP280;60912;48.968;10.124;2023-09-12T05:38:02;96293.63;;;23.19
71640;BMP280;60912;48.968;10.124;2023-09-12T05:40:28;96290.84;;;24.11
71640;BMP280;60912;48.968;10.124;2023-09-12T05:42:53;96283.19;;;25.42
71640;BMP280;60912;48.968;10.124;2023-09-12T05:45:18;96282.03;;;26.24
71640;BMP280;60912;48.968;10.124;2023-09-12T05:47:44;96285.22;;;27.25
71640;BMP280;60912;48.968;10.124;2023-09-12T05:50:12;96284.03;;;28.02
71640;BMP280;60912;48.968;10.124;2023-09-12T05:52:40;96279.25;;;28.96
71640;BMP280;60912;48.968;10.124;2023-09-12T05:55:18;96283.56;;;30.11
71640;BMP280;60912;48.968;10.124;2023-09-12T05:57:44;96279.91;;;30.77
71640;BMP280;60912;48.968;10.124;2023-09-12T06:00:10;96280.38;;;31.69
71640;BMP280;60912;48.968;10.124;2023-09-12T06:02:38;96281.97;;;32.63
71640;BMP280;60912;48.968;10.124;2023-09-12T06:05:03;96277.16;;;34.05
71640;BMP280;60912;48.968;10.124;2023-09-12T06:07:29;96273.34;;;35.11
71640;BMP280;60912;48.968;10.124;2023-09-12T06:09:55;96284.97;;;34.95
71640;BMP280;60912;48.968;10.124;2023-09-12T06:12:20;96278.28;;;35.19
71640;BMP280;60912;48.968;10.124;2023-09-12T06:14:46;96276.66;;;35.34
71640;BMP280;60912;48.968;10.124;2023-09-12T06:17:11;96271.59;;;35.36
71640;BMP280;60912;48.968;10.124;2023-09-12T06:19:36;96268.38;;;34.33
71640;BMP280;60912;48.968;10.124;2023-09-12T06:22:02;96273.78;;;33.70
71640;BMP280;60912;48.968;10.124;2023-09-12T06:24:27;96275.50;;;32.82
71640;BMP280;60912;48.968;10.124;2023-09-12T06:26:53;96274.13;;;32.19
71640;BMP280;60912;48.968;10.124;2023-09-12T06:29:18;96273.34;;;31.92
71640;BMP280;60912;48.968;10.124;2023-09-12T06:31:43;96276.88;;;31.77
71640;BMP280;60912;48.968;10.124;2023-09-12T06:34:09;96278.22;;;31.52
71640;BMP280;60912;48.968;10.124;2023-09-12T06:36:35;96276.66;;;31.26
71640;BMP280;60912;48.968;10.124;2023-09-12T06:39:00;96275.09;;;31.03
71640;BMP280;60912;48.968;10.124;2023-09-12T06:41:27;96281.41;;;30.90
71640;BMP280;60912;48.968;10.124;2023-09-12T06:43:52;96281.16;;;30.59
71640;BMP280;60912;48.968;10.124;2023-09-12T06:46:18;96279.66;;;30.48
71640;BMP280;60912;48.968;10.124;2023-09-12T06:48:44;96279.47;;;30.28
71640;BMP280;60912;48.968;10.124;2023-09-12T06:51:10;96282.22;;;30.18
71640;BMP280;60912;48.968;10.124;2023-09-12T06:53:36;96286.16;;;29.87
71640;BMP280;60912;48.968;10.124;2023-09-12T06:56:07;96284.00;;;29.29
71640;BMP280;60912;48.968;10.124;2023-09-12T06:58:33;96288.84;;;29.21
71640;BMP280;60912;48.968;10.124;2023-09-12T07:01:07;96292.88;;;29.06
71640;BMP280;60912;48.968;10.124;2023-09-12T07:03:33;96289.41;;;29.11
71640;BMP280;60912;48.968;10.124;2023-09-12T07:05:59;96297.28;;;29.17
71640;BMP280;60912;48.968;10.124;2023-09-12T07:08:24;96297.31;;;29.19
71640;BMP280;60912;48.968;10.124;2023-09-12T07:10:50;96300.84;;;29.17
71640;BMP280;60912;48.968;10.124;2023-09-12T07:13:15;96294.06;;;28.89
71640;BMP280;60912;48.968;10.124;2023-09-12T07:15:41;96302.81;;;28.61
71640;BMP280;60912;48.968;10.124;2023-09-12T07:18:06;96295.34;;;28.40
71640;BMP280;60912;48.968;10.124;2023-09-12T07:20:34;96297.88;;;28.24
71640;BMP280;60912;48.968;10.124;2023-09-12T07:23:00;96293.38;;;28.11
71640;BMP280;60912;48.968;10.124;2023-09-12T07:25:25;96298.88;;;28.02
71640;BMP280;60912;48.968;10.124;2023-09-12T07:27:51;96297.91;;;27.90
71640;BMP280;60912;48.968;10.124;2023-09-12T07:30:16;96291.63;;;27.93
71640;BMP280;60912;48.968;10.124;2023-09-12T07:32:42;96298.34;;;28.10
71640;BMP280;60912;48.968;10.124;2023-09-12T07:35:07;96295.47;;;28.08
71640;BMP280;60912;48.968;10.124;2023-09-12T07:37:33;96297.56;;;28.45
71640;BMP280;60912;48.968;10.124;2023-09-12T07:39:58;96302.19;;;28.68
71640;BMP280;60912;48.968;10.124;2023-09-12T07:42:23;96298.50;;;29.02
71640;BMP280;60912;48.968;10.124;2023-09-12T07:44:49;96295.44;;;29.36
71640;BMP280;60912;48.968;10.124;2023-09-12T07:47:14;96294.66;;;29.31
71640;BMP280;60912;48.968;10.124;2023-09-12T07:49:40;96299.22;;;29.54
71640;BMP280;60912;48.968;10.124;2023-09-12T07:52:06;96295.84;;;29.66
71640;BMP280;60912;48.968;10.124;2023-09-12T07:54:31;96299.81;;;29.45
71640;BMP280;60912;48.968;10.124;2023-09-12T07:56:56;96299.31;;;29.08
71640;BMP280;60912;48.968;10.124;2023-09-12T07:59:22;96304.69;;;28.92
71640;BMP280;60912;48.968;10.124;2023-09-12T08:01:47;96314.81;;;29.03
71640;BMP280;60912;48.968;10.124;2023-09-12T08:04:12;96316.41;;;29.12
71640;BMP280;60912;48.968;10.124;2023-09-12T08:06:40;96311.31;;;29.55
71640;BMP280;60912;48.968;10.124;2023-09-12T08:09:06;96311.75;;;29.91
71640;BMP280;60912;48.968;10.124;2023-09-12T08:11:31;96313.44;;;30.12
71640;BMP280;60912;48.968;10.124;2023-09-12T08:13:57;96319.97;;;30.25
71640;BMP280;60912;48.968;10.124;2023-09-12T08:16:22;96319.59;;;30.60
71640;BMP280;60912;48.968;10.124;2023-09-12T08:18:47;96315.66;;;31.00
71640;BMP280;60912;48.968;10.124;2023-09-12T08:21:13;96320.06;;;31.25
71640;BMP280;60912;48.968;10.124;2023-09-12T08:23:38;96321.63;;;31.50
71640;BMP280;60912;48.968;10.124;2023-09-12T08:26:07;96313.91;;;31.81
71640;BMP280;60912;48.968;10.124;2023-09-12T08:28:34;96312.28;;;31.27
71640;BMP280;60912;48.968;10.124;2023-09-12T08:31:00;96316.56;;;31.38
71640;BMP280;60912;48.968;10.124;2023-09-12T08:33:25;96314.53;;;31.57
71640;BMP280;60912;48.968;10.124;2023-09-12T08:35:50;96313.84;;;31.61
71640;BMP280;60912;48.968;10.124;2023-09-12T08:38:16;96304.56;;;31.56
71640;BMP280;60912;48.968;10.124;2023-09-12T08:40:48;96308.84;;;31.53
71640;BMP280;60912;48.968;10.124;2023-09-12T08:43:14;96304.59;;;31.62
71640;BMP280;60912;48.968;10.124;2023-09-12T08:45:39;96299.66;;;31.83
71640;BMP280;60912;48.968;10.124;2023-09-12T08:48:05;96306.13;;;31.91
71640;BMP280;60912;48.968;10.124;2023-09-12T08:50:31;96305.47;;;32.17
71640;BMP280;60912;48.968;10.124;2023-09-12T08:53:07;96308.28;;;32.07
71640;BMP280;60912;48.968;10.124;2023-09-12T08:55:33;96307.53;;;31.86
71640;BMP280;60912;48.968;10.124;2023-09-12T08:58:02;96309.00;;;31.91
71640;BMP280;60912;48.968;10.124;2023-09-12T09:00:28;96316.16;;;32.18
71640;BMP280;60912;48.968;10.124;2023-09-12T09:02:53;96307.63;;;32.33
71640;BMP280;60912;48.968;10.124;2023-09-12T09:05:20;96307.63;;;32.41
71640;BMP280;60912;48.968;10.124;2023-09-12T09:07:45;96307.63;;;32.29
71640;BMP280;60912;48.968;10.124;2023-09-12T09:10:16;96301.94;;;32.71
71640;BMP280;60912;48.968;10.124;2023-09-12T09:12:44;96297.66;;;32.46
71640;BMP280;60912;48.968;10.124;2023-09-12T09:15:29;96307.66;;;32.61
71640;BMP280;60912;48.968;10.124;2023-09-12T09:17:56;96311.22;;;32.65
71640;BMP280;60912;48.968;10.124;2023-09-12T09:20:25;96302.66;;;32.59
71640;BMP280;60912;48.968;10.124;2023-09-12T09:23:00;96303.34;;;32.70
71640;BMP280;60912;48.968;10.124;2023-09-12T09:25:26;96304.78;;;32.83
71640;BMP280;60912;48.968;10.124;2023-09-12T09:27:52;96299.81;;;32.79
71640;BMP280;60912;48.968;10.124;2023-09-12T09:30:17;96300.50;;;32.92
71640;BMP280;60912;48.968;10.124;2023-09-12T09:32:44;96296.19;;;32.97
71640;BMP280;60912;48.968;10.124;2023-09-12T09:35:10;96290.50;;;32.97
71640;BMP280;60912;48.968;10.124;2023-09-12T09:37:36;96297.63;;;32.90
71640;BMP280;60912;48.968;10.124;2023-09-12T09:40:01;96304.78;;;32.87
71640;BMP280;60912;48.968;10.124;2023-09-12T09:42:30;96293.34;;;32.83
71640;BMP280;60912;48.968;10.124;2023-09-12T09:44:55;96301.91;;;33.05
71640;BMP280;60912;48.968;10.124;2023-09-12T09:47:21;96294.81;;;32.66
71640;BMP280;60912;48.968;10.124;2023-09-12T09:49:47;96299.09;;;32.27
71640;BMP280;60912;48.968;10.124;2023-09-12T09:52:12;96288.38;;;32.47
71640;BMP280;60912;48.968;10.124;2023-09-12T09:54:44;96299.09;;;32.53
71640;BMP280;60912;48.968;10.124;2023-09-12T09:57:10;96291.97;;;32.58
71640;BMP280;60912;48.968;10.124;2023-09-12T09:59:37;96286.22;;;32.68
71640;BMP280;60912;48.968;10.124;2023-09-12T10:02:03;96286.16;;;33.06
71640;BMP280;60912;48.968;10.124;2023-09-12T10:04:31;96280.44;;;33.22
71640;BMP280;60912;48.968;10.124;2023-09-12T10:07:00;96288.38;;;32.83
71640;BMP280;60912;48.968;10.124;2023-09-12T10:09:27;96283.38;;;32.72
71640;BMP280;60912;48.968;10.124;2023-09-12T10:11:56;96279.84;;;32.63
71640;BMP280;60912;48.968;10.124;2023-09-12T10:14:23;96279.09;;;32.91
71640;BMP280;60912;48.968;10.124;2023-09-12T10:16:58;96274.13;;;32.73
71640;BMP280;60912;48.968;10.124;2023-09-12T10:19:35;96274.81;;;32.86
71640;BMP280;60912;48.968;10.124;2023-09-12T10:22:21;96271.16;;;33.16
71640;BMP280;60912;48.968;10.124;2023-09-12T10:24:49;96271.03;;;33.44
71640;BMP280;60912;48.968;10.124;2023-09-12T10:27:18;96267.63;;;33.17
71640;BMP280;60912;48.968;10.124;2023-09-12T10:29:44;96266.91;;;33.13
71640;BMP280;60912;48.968;10.124;2023-09-12T10:32:14;96266.91;;;33.09
71640;BMP280;60912;48.968;10.124;2023-09-12T10:34:40;96273.34;;;32.93
71640;BMP280;60912;48.968;10.124;2023-09-12T10:37:12;96265.53;;;32.77
71640;BMP280;60912;48.968;10.124;2023-09-12T10:39:41;96263.38;;;32.94
71640;BMP280;60912;48.968;10.124;2023-09-12T10:42:10;96264.09;;;32.86
71640;BMP280;60912;48.968;10.124;2023-09-12T10:44:37;96261.94;;;32.85
71640;BMP280;60912;48.968;10.124;2023-09-12T10:47:04;96268.34;;;33.08
71640;BMP280;60912;48.968;10.124;2023-09-12T10:49:30;96274.81;;;32.84
71640;BMP280;60912;48.968;10.124;2023-09-12T10:51:56;96264.78;;;32.95
71640;BMP280;60912;48.968;10.124;2023-09-12T10:54:38;96261.13;;;33.31
71640;BMP280;60912;48.968;10.124;2023-09-12T10:57:10;96256.28;;;32.79
71640;BMP280;60912;48.968;10.124;2023-09-12T11:00:09;96253.34;;;33.07
71640;BMP280;60912;48.968;10.124;2023-09-12T11:02:39;96254.13;;;32.91
71640;BMP280;60912;48.968;10.124;2023-09-12T11:07:57;96258.91;;;33.47
71640;BMP280;60912;48.968;10.124;2023-09-12T11:10:23;96257.56;;;33.30
71640;BMP280;60912;48.968;10.124;2023-09-12T11:12:53;96258.97;;;33.31
71640;BMP280;60912;48.968;10.124;2023-09-12T11:15:21;96254.63;;;33.44
71640;BMP280;60912;48.968;10.124;2023-09-12T11:17:48;96255.41;;;33.33
71640;BMP280;60912;48.968;10.124;2023-09-12T11:20:15;96254.63;;;33.48
71640;BMP280;60912;48.968;10.124;2023-09-12T11:22:42;96243.84;;;33.61
71640;BMP280;60912;48.968;10.124;2023-09-12T11:30:19;96242.63;;;33.12
71640;BMP280;60912;48.968;10.124;2023-09-12T11:32:49;96245.28;;;33.58
71640;BMP280;60912;48.968;10.124;2023-09-12T11:35:17;96248.16;;;33.52
71640;BMP280;60912;48.968;10.124;2023-09-12T11:37:51;96247.41;;;33.57
71640;BMP280;60912;48.968;10.124;2023-09-12T11:40:17;96247.41;;;33.63
71640;BMP280;60912;48.968;10.124;2023-09-12T11:42:47;96241.59;;;33.79
71640;BMP280;60912;48.968;10.124;2023-09-12T11:45:17;96245.84;;;33.83
71640;BMP280;60912;48.968;10.124;2023-09-12T11:47:44;96246.03;;;33.54
71640;BMP280;60912;48.968;10.124;2023-09-12T11:50:32;96243.13;;;33.60
71640;BMP280;60912;48.968;10.124;2023-09-12T11:55:44;96240.03;;;33.99
71640;BMP280;60912;48.968;10.124;2023-09-12T11:58:11;96247.28;;;33.82
71640;BMP280;60912;48.968;10.124;2023-09-12T12:00:37;96239.47;;;33.72
71640;BMP280;60912;48.968;10.124;2023-09-12T12:03:03;96246.00;;;33.56
71640;BMP280;60912;48.968;10.124;2023-09-12T12:05:29;96247.47;;;33.49
71640;BMP280;60912;48.968;10.124;2023-09-12T12:07:54;96244.50;;;33.69
71640;BMP280;60912;48.968;10.124;2023-09-12T12:10:20;96247.47;;;33.51
71640;BMP280;60912;48.968;10.124;2023-09-12T12:12:45;96242.53;;;33.32
71640;BMP280;60912;48.968;10.124;2023-09-12T12:15:12;96246.09;;;33.42
71640;BMP280;60912;48.968;10.124;2023-09-12T12:17:37;96237.47;;;33.52
71640;BMP280;60912;48.968;10.124;2023-09-12T12:20:09;96230.88;;;33.80
71640;BMP280;60912;48.968;10.124;2023-09-12T12:22:39;96227.28;;;33.82
71640;BMP280;60912;48.968;10.124;2023-09-12T12:25:09;96221.69;;;33.59
71640;BMP280;60912;48.968;10.124;2023-09-12T12:27:36;96220.34;;;33.44
71640;BMP280;60912;48.968;10.124;2023-09-12T12:30:04;96224.59;;;33.55
71640;BMP280;60912;48.968;10.124;2023-09-12T12:32:29;96214.56;;;33.60
71640;BMP280;60912;48.968;10.124;2023-09-12T12:34:54;96220.38;;;33.40
71640;BMP280;60912;48.968;10.124;2023-09-12T12:37:20;96213.22;;;33.43
71640;BMP280;60912;48.968;10.124;2023-09-12T12:39:45;96208.88;;;33.52
71640;BMP280;60912;48.968;10.124;2023-09-12T12:42:10;96216.03;;;33.53
71640;BMP280;60912;48.968;10.124;2023-09-12T12:44:36;96218.16;;;33.55
71640;BMP280;60912;48.968;10.124;2023-09-12T12:47:06;96206.09;;;33.40
71640;BMP280;60912;48.968;10.124;2023-09-12T12:49:36;96216.84;;;33.36
71640;BMP280;60912;48.968;10.124;2023-09-12T12:52:03;96205.38;;;33.42
71640;BMP280;60912;48.968;10.124;2023-09-12T12:54:31;96215.19;;;33.71
71640;BMP280;60912;48.968;10.124;2023-09-12T12:56:58;96208.75;;;33.76
71640;BMP280;60912;48.968;10.124;2023-09-12T12:59:23;96208.81;;;33.66
71640;BMP280;60912;48.968;10.124;2023-09-12T13:01:50;96199.38;;;33.82
71640;BMP280;60912;48.968;10.124;2023-09-12T13:04:15;96193.00;;;33.77
71640;BMP280;60912;48.968;10.124;2023-09-12T13:06:41;96189.97;;;34.00
71640;BMP280;60912;48.968;10.124;2023-09-12T13:09:09;96190.09;;;33.86
71640;BMP280;60912;48.968;10.124;2023-09-12T13:11:36;96182.94;;;33.87
71640;BMP280;60912;48.968;10.124;2023-09-12T13:14:03;96175.81;;;33.82
71640;BMP280;60912;48.968;10.124;2023-09-12T13:16:34;96180.06;;;33.89
71640;BMP280;60912;48.968;10.124;2023-09-12T13:19:00;96174.28;;;33.97
71640;BMP280;60912;48.968;10.124;2023-09-12T13:21:25;96177.75;;;34.07
71640;BMP280;60912;48.968;10.124;2023-09-12T13:23:50;96173.22;;;34.32
71640;BMP280;60912;48.968;10.124;2023-09-12T13:26:16;96170.38;;;34.36
71640;BMP280;60912;48.968;10.124;2023-09-12T13:28:41;96167.47;;;34.38
71640;BMP280;60912;48.968;10.124;2023-09-12T13:31:07;96174.03;;;34.27
71640;BMP280;60912;48.968;10.124;2023-09-12T13:33:33;96163.38;;;34.17
71640;BMP280;60912;48.968;10.124;2023-09-12T13:35:58;96160.59;;;34.07
71640;BMP280;60912;48.968;10.124;2023-09-12T13:38:23;96162.25;;;33.80
71640;BMP280;60912;48.968;10.124;2023-09-12T13:40:49;96164.47;;;33.71
71640;BMP280;60912;48.968;10.124;2023-09-12T13:43:15;96161.53;;;33.82
71640;BMP280;60912;48.968;10.124;2023-09-12T13:45:40;96163.09;;;33.62
71640;BMP280;60912;48.968;10.124;2023-09-12T13:48:06;96168.19;;;33.44
71640;BMP280;60912;48.968;10.124;2023-09-12T13:50:32;96166.13;;;33.38
71640;BMP280;60912;48.968;10.124;2023-09-12T13:52:58;96161.25;;;33.13
71640;BMP280;60912;48.968;10.124;2023-09-12T13:55:32;96160.47;;;33.18
71640;BMP280;60912;48.968;10.124;2023-09-12T13:57:58;96161.97;;;33.15
71640;BMP280;60912;48.968;10.124;2023-09-12T14:00:24;96157.63;;;33.20
71640;BMP280;60912;48.968;10.124;2023-09-12T14:02:49;96156.84;;;33.32
71640;BMP280;60912;48.968;10.124;2023-09-12T14:05:15;96150.41;;;33.37
71640;BMP280;60912;48.968;10.124;2023-09-12T14:07:40;96149.66;;;33.43
71640;BMP280;60912;48.968;10.124;2023-09-12T14:10:09;96155.44;;;33.31
71640;BMP280;60912;48.968;10.124;2023-09-12T14:12:34;96156.91;;;33.20
71640;BMP280;60912;48.968;10.124;2023-09-12T14:15:00;96150.47;;;33.21
71640;BMP280;60912;48.968;10.124;2023-09-12T14:17:26;96144.66;;;33.43
71640;BMP280;60912;48.968;10.124;2023-09-12T14:19:53;96131.81;;;33.42
71640;BMP280;60912;48.968;10.124;2023-09-12T14:22:18;96141.81;;;33.41
71640;BMP280;60912;48.968;10.124;2023-09-12T14:24:44;96145.31;;;33.52
71640;BMP280;60912;48.968;10.124;2023-09-12T14:27:09;96148.94;;;33.42
71640;BMP280;60912;48.968;10.124;2023-09-12T14:29:34;96140.34;;;33.44